sensor_id;sensor_type;location;lat;lon;timestamp;P1;durP1;ratioP1;P2;durP2;ratioP2
67751;SDS011;54551;51.068;5.826;2022-07-29T00:00:07;1.90;;;1.33;;
67751;SDS011;54551;51.068;5.826;2022-07-29T00:02:34;3.43;;;1.40;;
67751;SDS011;54551;51.068;5.826;2022-07-29T00:05:00;2.20;;;1.33;;
67751;SDS011;54551;51.068;5.826;2022-07-29T00:07:27;2.70;;;1.73;;
67751;SDS011;54551;51.068;5.826;2022-07-29T00:09:52;4.20;;;1.70;;
67751;SDS011;54551;51.068;5.826;2022-07-29T00:12:20;2.47;;;1.27;;
67751;SDS011;54551;51.068;5.826;2022-07-29T00:14:47;3.27;;;1.50;;
67751;SDS011;54551;51.068;5.826;2022-07-29T00:17:13;2.70;;;1.60;;
67751;SDS011;54551;51.068;5.826;2022-07-29T00:19:39;3.33;;;1.70;;
67751;SDS011;54551;51.068;5.826;2022-07-29T00:22:05;3.03;;;1.50;;
67751;SDS011;54551;51.068;5.826;2022-07-29T00:24:31;2.93;;;1.60;;
67751;SDS011;54551;51.068;5.826;2022-07-29T00:26:56;4.97;;;2.37;;
67751;SDS011;54551;51.068;5.826;2022-07-29T00:29:22;5.33;;;1.97;;
67751;SDS011;54551;51.068;5.826;2022-07-29T00:31:48;6.07;;;1.87;;
67751;SDS011;54551;51.068;5.826;2022-07-29T00:34:14;3.60;;;1.90;;
67751;SDS011;54551;51.068;5.826;2022-07-29T00:37:04;5.23;;;2.47;;
67751;SDS011;54551;51.068;5.826;2022-07-29T00:39:29;3.90;;;2.27;;
67751;SDS011;54551;51.068;5.826;2022-07-29T00:41:55;4.20;;;2.33;;
67751;SDS011;54551;51.068;5.826;2022-07-29T00:44:21;5.03;;;2.57;;
67751;SDS011;54551;51.068;5.826;2022-07-29T00:46:47;7.00;;;2.90;;
67751;SDS011;54551;51.068;5.826;2022-07-29T00:49:13;4.27;;;2.40;;
67751;SDS011;54551;51.068;5.826;2022-07-29T00:51:39;5.07;;;2.37;;
67751;SDS011;54551;51.068;5.826;2022-07-29T00:54:05;4.63;;;2.93;;
67751;SDS011;54551;51.068;5.826;2022-07-29T00:56:31;7.63;;;3.03;;
67751;SDS011;54551;51.068;5.826;2022-07-29T00:58:58;6.73;;;2.90;;
67751;SDS011;54551;51.068;5.826;2022-07-29T01:01:25;6.13;;;3.43;;
67751;SDS011;54551;51.068;5.826;2022-07-29T01:03:51;4.80;;;3.13;;
67751;SDS011;54551;51.068;5.826;2022-07-29T01:06:18;4.17;;;2.80;;
67751;SDS011;54551;51.068;5.826;2022-07-29T01:08:45;4.77;;;3.33;;
67751;SDS011;54551;51.068;5.826;2022-07-29T01:11:13;2.97;;;2.63;;
67751;SDS011;54551;51.068;5.826;2022-07-29T01:13:41;5.80;;;2.70;;
67751;SDS011;54551;51.068;5.826;2022-07-29T01:16:13;5.30;;;2.70;;
67751;SDS011;54551;51.068;5.826;2022-07-29T01:19:07;4.80;;;2.83;;
67751;SDS011;54551;51.068;5.826;2022-07-29T01:22:12;3.63;;;2.40;;
67751;SDS011;54551;51.068;5.826;2022-07-29T01:29:59;5.73;;;3.20;;
67751;SDS011;54551;51.068;5.826;2022-07-29T01:32:31;7.27;;;3.30;;
67751;SDS011;54551;51.068;5.826;2022-07-29T01:35:17;4.27;;;3.23;;
67751;SDS011;54551;51.068;5.826;2022-07-29T01:37:55;6.73;;;3.80;;
67751;SDS011;54551;51.068;5.826;2022-07-29T01:43:06;4.37;;;3.23;;
67751;SDS011;54551;51.068;5.826;2022-07-29T01:48:21;4.37;;;2.90;;
67751;SDS011;54551;51.068;5.826;2022-07-29T01:50:56;5.60;;;3.40;;
67751;SDS011;54551;51.068;5.826;2022-07-29T01:56:44;3.80;;;2.37;;
67751;SDS011;54551;51.068;5.826;2022-07-29T01:59:12;3.87;;;3.07;;
67751;SDS011;54551;51.068;5.826;2022-07-29T02:01:39;7.13;;;2.97;;
67751;SDS011;54551;51.068;5.826;2022-07-29T02:04:08;7.30;;;3.83;;
67751;SDS011;54551;51.068;5.826;2022-07-29T02:06:36;7.30;;;3.60;;
67751;SDS011;54551;51.068;5.826;2022-07-29T02:09:03;6.00;;;2.97;;
67751;SDS011;54551;51.068;5.826;2022-07-29T02:11:31;8.47;;;3.70;;
67751;SDS011;54551;51.068;5.826;2022-07-29T02:14:00;5.97;;;2.90;;
67751;SDS011;54551;51.068;5.826;2022-07-29T02:16:26;9.63;;;3.60;;
67751;SDS011;54551;51.068;5.826;2022-07-29T02:18:55;4.30;;;3.37;;
67751;SDS011;54551;51.068;5.826;2022-07-29T02:21:25;5.20;;;3.23;;
67751;SDS011;54551;51.068;5.826;2022-07-29T02:23:52;4.90;;;2.93;;
67751;SDS011;54551;51.068;5.826;2022-07-29T02:26:20;3.70;;;3.10;;
67751;SDS011;54551;51.068;5.826;2022-07-29T02:28:50;6.90;;;3.47;;
67751;SDS011;54551;51.068;5.826;2022-07-29T02:31:19;6.03;;;3.80;;
67751;SDS011;54551;51.068;5.826;2022-07-29T02:33:48;5.37;;;3.30;;
67751;SDS011;54551;51.068;5.826;2022-07-29T02:36:14;6.60;;;3.47;;
67751;SDS011;54551;51.068;5.826;2022-07-29T02:38:42;3.93;;;3.00;;
67751;SDS011;54551;51.068;5.826;2022-07-29T02:41:16;4.00;;;2.90;;
67751;SDS011;54551;51.068;5.826;2022-07-29T02:43:56;3.27;;;2.93;;
67751;SDS011;54551;51.068;5.826;2022-07-29T02:46:34;4.67;;;3.23;;
67751;SDS011;54551;51.068;5.826;2022-07-29T02:51:49;3.73;;;3.37;;
67751;SDS011;54551;51.068;5.826;2022-07-29T02:54:28;6.37;;;4.57;;
67751;SDS011;54551;51.068;5.826;2022-07-29T02:57:04;5.87;;;3.53;;
67751;SDS011;54551;51.068;5.826;2022-07-29T02:59:37;4.43;;;3.53;;
67751;SDS011;54551;51.068;5.826;2022-07-29T03:02:07;4.10;;;3.70;;
67751;SDS011;54551;51.068;5.826;2022-07-29T03:04:34;6.80;;;4.07;;
67751;SDS011;54551;51.068;5.826;2022-07-29T03:07:03;5.40;;;3.50;;
67751;SDS011;54551;51.068;5.826;2022-07-29T03:09:30;3.83;;;3.40;;
67751;SDS011;54551;51.068;5.826;2022-07-29T03:11:56;4.50;;;4.10;;
67751;SDS011;54551;51.068;5.826;2022-07-29T03:14:23;5.37;;;3.50;;
67751;SDS011;54551;51.068;5.826;2022-07-29T03:16:49;7.40;;;3.93;;
67751;SDS011;54551;51.068;5.826;2022-07-29T03:19:16;5.63;;;4.33;;
67751;SDS011;54551;51.068;5.826;2022-07-29T03:21:43;8.77;;;4.40;;
67751;SDS011;54551;51.068;5.826;2022-07-29T03:24:09;5.53;;;4.17;;
67751;SDS011;54551;51.068;5.826;2022-07-29T03:26:35;4.63;;;3.90;;
67751;SDS011;54551;51.068;5.826;2022-07-29T03:29:00;5.27;;;4.10;;
67751;SDS011;54551;51.068;5.826;2022-07-29T03:31:26;5.47;;;3.80;;
67751;SDS011;54551;51.068;5.826;2022-07-29T03:33:52;6.33;;;3.77;;
67751;SDS011;54551;51.068;5.826;2022-07-29T03:36:18;4.33;;;3.60;;
67751;SDS011;54551;51.068;5.826;2022-07-29T03:38:44;4.30;;;3.83;;
67751;SDS011;54551;51.068;5.826;2022-07-29T03:41:11;7.97;;;4.37;;
67751;SDS011;54551;51.068;5.826;2022-07-29T03:43:40;7.13;;;4.33;;
67751;SDS011;54551;51.068;5.826;2022-07-29T03:46:07;4.30;;;3.53;;
67751;SDS011;54551;51.068;5.826;2022-07-29T03:48:35;7.37;;;4.27;;
67751;SDS011;54551;51.068;5.826;2022-07-29T03:51:05;4.40;;;3.57;;
67751;SDS011;54551;51.068;5.826;2022-07-29T03:53:32;6.53;;;3.33;;
67751;SDS011;54551;51.068;5.826;2022-07-29T03:56:00;6.87;;;3.70;;
67751;SDS011;54551;51.068;5.826;2022-07-29T03:58:28;4.53;;;3.03;;
67751;SDS011;54551;51.068;5.826;2022-07-29T04:00:56;4.37;;;3.83;;
67751;SDS011;54551;51.068;5.826;2022-07-29T04:03:23;3.97;;;3.23;;
67751;SDS011;54551;51.068;5.826;2022-07-29T04:06:02;6.33;;;4.23;;
67751;SDS011;54551;51.068;5.826;2022-07-29T04:08:33;4.67;;;3.37;;
67751;SDS011;54551;51.068;5.826;2022-07-29T04:11:00;4.93;;;3.60;;
67751;SDS011;54551;51.068;5.826;2022-07-29T04:13:26;4.43;;;3.67;;
67751;SDS011;54551;51.068;5.826;2022-07-29T04:15:52;5.40;;;4.10;;
67751;SDS011;54551;51.068;5.826;2022-07-29T04:18:18;5.20;;;3.80;;
67751;SDS011;54551;51.068;5.826;2022-07-29T04:20:44;6.70;;;4.90;;
67751;SDS011;54551;51.068;5.826;2022-07-29T04:23:10;7.03;;;5.07;;
67751;SDS011;54551;51.068;5.826;2022-07-29T04:25:36;8.87;;;5.07;;
67751;SDS011;54551;51.068;5.826;2022-07-29T04:28:04;6.30;;;5.03;;
67751;SDS011;54551;51.068;5.826;2022-07-29T04:30:30;5.93;;;5.17;;
67751;SDS011;54551;51.068;5.826;2022-07-29T04:32:57;6.13;;;4.93;;
67751;SDS011;54551;51.068;5.826;2022-07-29T04:35:23;5.13;;;4.70;;
67751;SDS011;54551;51.068;5.826;2022-07-29T04:37:49;6.30;;;5.50;;
67751;SDS011;54551;51.068;5.826;2022-07-29T04:40:15;7.60;;;4.73;;
67751;SDS011;54551;51.068;5.826;2022-07-29T04:42:41;6.93;;;5.00;;
67751;SDS011;54551;51.068;5.826;2022-07-29T04:45:07;4.77;;;4.37;;
67751;SDS011;54551;51.068;5.826;2022-07-29T04:47:33;5.30;;;4.80;;
67751;SDS011;54551;51.068;5.826;2022-07-29T04:49:59;5.00;;;4.40;;
67751;SDS011;54551;51.068;5.826;2022-07-29T04:52:25;6.23;;;4.27;;
67751;SDS011;54551;51.068;5.826;2022-07-29T04:54:50;4.90;;;4.40;;
67751;SDS011;54551;51.068;5.826;2022-07-29T04:57:16;5.87;;;4.00;;
67751;SDS011;54551;51.068;5.826;2022-07-29T04:59:42;4.90;;;4.50;;
67751;SDS011;54551;51.068;5.826;2022-07-29T05:02:08;5.27;;;4.23;;
67751;SDS011;54551;51.068;5.826;2022-07-29T05:04:35;4.70;;;3.93;;
67751;SDS011;54551;51.068;5.826;2022-07-29T05:07:01;4.23;;;3.80;;
67751;SDS011;54551;51.068;5.826;2022-07-29T05:09:26;4.90;;;4.10;;
67751;SDS011;54551;51.068;5.826;2022-07-29T05:11:52;4.83;;;4.20;;
67751;SDS011;54551;51.068;5.826;2022-07-29T05:14:18;8.00;;;4.73;;
67751;SDS011;54551;51.068;5.826;2022-07-29T05:16:44;7.17;;;4.17;;
67751;SDS011;54551;51.068;5.826;2022-07-29T05:19:10;4.87;;;3.73;;
67751;SDS011;54551;51.068;5.826;2022-07-29T05:21:36;4.37;;;3.97;;
67751;SDS011;54551;51.068;5.826;2022-07-29T05:24:02;4.77;;;4.07;;
67751;SDS011;54551;51.068;5.826;2022-07-29T05:26:28;8.07;;;4.50;;
67751;SDS011;54551;51.068;5.826;2022-07-29T05:28:53;5.17;;;4.43;;
67751;SDS011;54551;51.068;5.826;2022-07-29T05:31:20;5.37;;;3.90;;
67751;SDS011;54551;51.068;5.826;2022-07-29T05:33:45;5.90;;;4.23;;
67751;SDS011;54551;51.068;5.826;2022-07-29T05:36:11;7.13;;;4.40;;
67751;SDS011;54551;51.068;5.826;2022-07-29T05:38:37;8.80;;;4.70;;
67751;SDS011;54551;51.068;5.826;2022-07-29T05:41:03;5.47;;;4.70;;
67751;SDS011;54551;51.068;5.826;2022-07-29T05:43:30;5.80;;;4.67;;
67751;SDS011;54551;51.068;5.826;2022-07-29T05:45:57;7.53;;;4.33;;
67751;SDS011;54551;51.068;5.826;2022-07-29T05:48:23;5.73;;;5.03;;
67751;SDS011;54551;51.068;5.826;2022-07-29T05:50:49;4.83;;;4.30;;
67751;SDS011;54551;51.068;5.826;2022-07-29T05:53:15;5.57;;;4.20;;
67751;SDS011;54551;51.068;5.826;2022-07-29T05:55:41;5.63;;;3.90;;
67751;SDS011;54551;51.068;5.826;2022-07-29T05:58:07;5.77;;;4.00;;
67751;SDS011;54551;51.068;5.826;2022-07-29T06:00:33;8.23;;;4.37;;
67751;SDS011;54551;51.068;5.826;2022-07-29T06:02:59;5.27;;;4.17;;
67751;SDS011;54551;51.068;5.826;2022-07-29T06:05:25;6.00;;;3.90;;
67751;SDS011;54551;51.068;5.826;2022-07-29T06:07:51;5.40;;;4.57;;
67751;SDS011;54551;51.068;5.826;2022-07-29T06:10:17;5.80;;;3.73;;
67751;SDS011;54551;51.068;5.826;2022-07-29T06:12:44;5.63;;;4.43;;
67751;SDS011;54551;51.068;5.826;2022-07-29T06:15:10;5.47;;;4.47;;
67751;SDS011;54551;51.068;5.826;2022-07-29T06:17:36;8.13;;;4.53;;
67751;SDS011;54551;51.068;5.826;2022-07-29T06:20:02;4.93;;;4.50;;
67751;SDS011;54551;51.068;5.826;2022-07-29T06:22:29;5.63;;;5.10;;
67751;SDS011;54551;51.068;5.826;2022-07-29T06:24:55;7.80;;;4.67;;
67751;SDS011;54551;51.068;5.826;2022-07-29T06:27:21;6.23;;;4.47;;
67751;SDS011;54551;51.068;5.826;2022-07-29T06:29:46;8.43;;;5.07;;
67751;SDS011;54551;51.068;5.826;2022-07-29T06:32:12;7.73;;;4.87;;
67751;SDS011;54551;51.068;5.826;2022-07-29T06:34:38;5.60;;;5.00;;
67751;SDS011;54551;51.068;5.826;2022-07-29T06:37:07;7.33;;;4.97;;
67751;SDS011;54551;51.068;5.826;2022-07-29T06:39:34;7.57;;;5.23;;
67751;SDS011;54551;51.068;5.826;2022-07-29T06:42:01;5.83;;;5.00;;
67751;SDS011;54551;51.068;5.826;2022-07-29T06:44:31;6.40;;;4.57;;
67751;SDS011;54551;51.068;5.826;2022-07-29T06:47:00;4.80;;;4.40;;
67751;SDS011;54551;51.068;5.826;2022-07-29T06:49:27;5.77;;;4.13;;
67751;SDS011;54551;51.068;5.826;2022-07-29T06:51:54;7.07;;;4.63;;
67751;SDS011;54551;51.068;5.826;2022-07-29T06:54:20;6.80;;;4.50;;
67751;SDS011;54551;51.068;5.826;2022-07-29T06:56:47;6.60;;;4.20;;
67751;SDS011;54551;51.068;5.826;2022-07-29T06:59:13;4.93;;;4.03;;
67751;SDS011;54551;51.068;5.826;2022-07-29T07:01:40;7.23;;;4.37;;
67751;SDS011;54551;51.068;5.826;2022-07-29T07:04:07;6.50;;;4.23;;
67751;SDS011;54551;51.068;5.826;2022-07-29T07:06:34;6.00;;;4.97;;
67751;SDS011;54551;51.068;5.826;2022-07-29T07:09:00;6.43;;;4.63;;
67751;SDS011;54551;51.068;5.826;2022-07-29T07:11:26;5.40;;;4.50;;
67751;SDS011;54551;51.068;5.826;2022-07-29T07:13:53;6.10;;;4.60;;
67751;SDS011;54551;51.068;5.826;2022-07-29T07:16:18;6.57;;;4.57;;
67751;SDS011;54551;51.068;5.826;2022-07-29T07:18:44;5.40;;;4.90;;
67751;SDS011;54551;51.068;5.826;2022-07-29T07:21:10;6.17;;;5.40;;
67751;SDS011;54551;51.068;5.826;2022-07-29T07:23:37;8.93;;;6.60;;
67751;SDS011;54551;51.068;5.826;2022-07-29T07:26:03;7.53;;;6.10;;
67751;SDS011;54551;51.068;5.826;2022-07-29T07:28:31;6.87;;;6.10;;
67751;SDS011;54551;51.068;5.826;2022-07-29T07:30:57;5.93;;;5.43;;
67751;SDS011;54551;51.068;5.826;2022-07-29T07:33:23;7.87;;;6.37;;
67751;SDS011;54551;51.068;5.826;2022-07-29T07:35:49;7.23;;;6.13;;
67751;SDS011;54551;51.068;5.826;2022-07-29T07:38:15;7.63;;;5.70;;
67751;SDS011;54551;51.068;5.826;2022-07-29T07:40:41;6.50;;;5.80;;
67751;SDS011;54551;51.068;5.826;2022-07-29T07:43:07;7.57;;;6.90;;
67751;SDS011;54551;51.068;5.826;2022-07-29T07:45:33;7.37;;;6.17;;
67751;SDS011;54551;51.068;5.826;2022-07-29T07:47:59;7.90;;;6.60;;
67751;SDS011;54551;51.068;5.826;2022-07-29T07:50:25;6.70;;;6.10;;
67751;SDS011;54551;51.068;5.826;2022-07-29T07:52:52;7.87;;;5.60;;
67751;SDS011;54551;51.068;5.826;2022-07-29T07:55:20;8.90;;;7.13;;
67751;SDS011;54551;51.068;5.826;2022-07-29T07:57:46;6.43;;;5.70;;
67751;SDS011;54551;51.068;5.826;2022-07-29T08:00:13;7.93;;;4.83;;
67751;SDS011;54551;51.068;5.826;2022-07-29T08:02:40;5.53;;;4.97;;
67751;SDS011;54551;51.068;5.826;2022-07-29T08:05:08;8.03;;;5.20;;
67751;SDS011;54551;51.068;5.826;2022-07-29T08:07:34;5.40;;;4.90;;
67751;SDS011;54551;51.068;5.826;2022-07-29T08:10:00;6.67;;;5.27;;
67751;SDS011;54551;51.068;5.826;2022-07-29T08:12:26;6.63;;;4.80;;
67751;SDS011;54551;51.068;5.826;2022-07-29T08:14:52;5.73;;;5.13;;
67751;SDS011;54551;51.068;5.826;2022-07-29T08:17:19;6.10;;;4.43;;
67751;SDS011;54551;51.068;5.826;2022-07-29T08:19:45;8.10;;;4.43;;
67751;SDS011;54551;51.068;5.826;2022-07-29T08:22:13;5.50;;;5.00;;
67751;SDS011;54551;51.068;5.826;2022-07-29T08:24:39;6.93;;;5.10;;
67751;SDS011;54551;51.068;5.826;2022-07-29T08:27:08;5.00;;;4.43;;
67751;SDS011;54551;51.068;5.826;2022-07-29T08:29:38;5.70;;;5.13;;
67751;SDS011;54551;51.068;5.826;2022-07-29T08:32:04;6.13;;;5.10;;
67751;SDS011;54551;51.068;5.826;2022-07-29T08:34:31;6.73;;;5.30;;
67751;SDS011;54551;51.068;5.826;2022-07-29T08:36:59;5.40;;;4.87;;
67751;SDS011;54551;51.068;5.826;2022-07-29T08:39:25;5.70;;;5.03;;
67751;SDS011;54551;51.068;5.826;2022-07-29T08:41:51;6.87;;;4.57;;
67751;SDS011;54551;51.068;5.826;2022-07-29T08:44:18;4.60;;;4.30;;
67751;SDS011;54551;51.068;5.826;2022-07-29T08:46:44;6.37;;;4.80;;
67751;SDS011;54551;51.068;5.826;2022-07-29T08:49:11;7.47;;;4.37;;
67751;SDS011;54551;51.068;5.826;2022-07-29T08:51:38;5.20;;;3.83;;
67751;SDS011;54551;51.068;5.826;2022-07-29T08:54:05;4.60;;;4.10;;
67751;SDS011;54551;51.068;5.826;2022-07-29T08:56:32;5.13;;;4.03;;
67751;SDS011;54551;51.068;5.826;2022-07-29T08:58:59;4.67;;;4.20;;
67751;SDS011;54551;51.068;5.826;2022-07-29T09:01:32;6.83;;;4.40;;
67751;SDS011;54551;51.068;5.826;2022-07-29T09:03:59;6.60;;;4.53;;
67751;SDS011;54551;51.068;5.826;2022-07-29T09:06:28;7.43;;;4.30;;
67751;SDS011;54551;51.068;5.826;2022-07-29T09:08:58;6.83;;;4.70;;
67751;SDS011;54551;51.068;5.826;2022-07-29T09:11:25;6.83;;;4.50;;
67751;SDS011;54551;51.068;5.826;2022-07-29T09:13:52;6.80;;;4.90;;
67751;SDS011;54551;51.068;5.826;2022-07-29T09:16:18;7.10;;;4.43;;
67751;SDS011;54551;51.068;5.826;2022-07-29T09:18:44;7.50;;;5.63;;
67751;SDS011;54551;51.068;5.826;2022-07-29T09:21:12;7.33;;;4.87;;
67751;SDS011;54551;51.068;5.826;2022-07-29T09:24:09;6.07;;;5.03;;
67751;SDS011;54551;51.068;5.826;2022-07-29T09:26:37;7.00;;;5.33;;
67751;SDS011;54551;51.068;5.826;2022-07-29T09:29:08;6.00;;;5.40;;
67751;SDS011;54551;51.068;5.826;2022-07-29T09:31:37;5.97;;;5.10;;
67751;SDS011;54551;51.068;5.826;2022-07-29T09:34:05;4.93;;;4.50;;
67751;SDS011;54551;51.068;5.826;2022-07-29T09:36:38;5.77;;;4.47;;
67751;SDS011;54551;51.068;5.826;2022-07-29T09:39:08;4.80;;;4.40;;
67751;SDS011;54551;51.068;5.826;2022-07-29T09:41:47;7.17;;;4.20;;
67751;SDS011;54551;51.068;5.826;2022-07-29T09:44:20;7.60;;;5.00;;
67751;SDS011;54551;51.068;5.826;2022-07-29T09:49:24;5.40;;;4.90;;
67751;SDS011;54551;51.068;5.826;2022-07-29T09:52:00;4.28;;;3.88;;
67751;SDS011;54551;51.068;5.826;2022-07-29T09:54:30;4.85;;;4.13;;
67751;SDS011;54551;51.068;5.826;2022-07-29T09:57:07;6.20;;;4.20;;
67751;SDS011;54551;51.068;5.826;2022-07-29T09:59:38;4.55;;;4.07;;
67751;SDS011;54551;51.068;5.826;2022-07-29T10:02:11;4.47;;;4.07;;
67751;SDS011;54551;51.068;5.826;2022-07-29T10:04:41;5.05;;;3.95;;
67751;SDS011;54551;51.068;5.826;2022-07-29T10:07:08;5.13;;;3.47;;
67751;SDS011;54551;51.068;5.826;2022-07-29T10:09:35;3.90;;;3.50;;
67751;SDS011;54551;51.068;5.826;2022-07-29T10:12:11;4.68;;;3.55;;
67751;SDS011;54551;51.068;5.826;2022-07-29T10:14:40;4.70;;;4.05;;
67751;SDS011;54551;51.068;5.826;2022-07-29T10:17:07;5.55;;;3.78;;
67751;SDS011;54551;51.068;5.826;2022-07-29T10:19:35;4.85;;;3.72;;
67751;SDS011;54551;51.068;5.826;2022-07-29T10:22:03;5.00;;;4.50;;
67751;SDS011;54551;51.068;5.826;2022-07-29T10:24:31;4.07;;;3.75;;
67751;SDS011;54551;51.068;5.826;2022-07-29T10:27:01;5.60;;;5.10;;
67751;SDS011;54551;51.068;5.826;2022-07-29T10:29:28;4.82;;;4.00;;
67751;SDS011;54551;51.068;5.826;2022-07-29T10:43:43;4.07;;;3.78;;
67751;SDS011;54551;51.068;5.826;2022-07-29T10:46:11;3.38;;;2.72;;
67751;SDS011;54551;51.068;5.826;2022-07-29T10:54:41;4.03;;;3.63;;
67751;SDS011;54551;51.068;5.826;2022-07-29T11:05:04;4.32;;;3.42;;
67751;SDS011;54551;51.068;5.826;2022-07-29T11:07:32;3.05;;;2.72;;
67751;SDS011;54551;51.068;5.826;2022-07-29T11:15:12;4.20;;;3.80;;
67751;SDS011;54551;51.068;5.826;2022-07-29T11:23:01;3.35;;;3.15;;
67751;SDS011;54551;51.068;5.826;2022-07-29T11:40:13;4.47;;;2.85;;
67751;SDS011;54551;51.068;5.826;2022-07-29T11:45:04;3.28;;;2.80;;
67751;SDS011;54551;51.068;5.826;2022-07-29T11:47:57;5.20;;;3.05;;
67751;SDS011;54551;51.068;5.826;2022-07-29T11:50:32;5.72;;;3.78;;
67751;SDS011;54551;51.068;5.826;2022-07-29T11:53:00;4.82;;;2.95;;
67751;SDS011;54551;51.068;5.826;2022-07-29T11:55:28;5.22;;;3.15;;
67751;SDS011;54551;51.068;5.826;2022-07-29T11:57:57;3.10;;;2.40;;
67751;SDS011;54551;51.068;5.826;2022-07-29T12:00:26;5.53;;;2.70;;
67751;SDS011;54551;51.068;5.826;2022-07-29T12:02:55;5.32;;;2.45;;
67751;SDS011;54551;51.068;5.826;2022-07-29T12:05:30;4.43;;;3.40;;
67751;SDS011;54551;51.068;5.826;2022-07-29T12:08:16;5.55;;;3.75;;
67751;SDS011;54551;51.068;5.826;2022-07-29T12:10:47;4.88;;;3.92;;
67751;SDS011;54551;51.068;5.826;2022-07-29T12:13:15;6.18;;;3.30;;
67751;SDS011;54551;51.068;5.826;2022-07-29T12:15:42;4.32;;;2.42;;
67751;SDS011;54551;51.068;5.826;2022-07-29T12:18:22;2.15;;;1.95;;
67751;SDS011;54551;51.068;5.826;2022-07-29T12:20:48;2.47;;;1.90;;
67751;SDS011;54551;51.068;5.826;2022-07-29T12:23:21;2.65;;;1.90;;
67751;SDS011;54551;51.068;5.826;2022-07-29T12:25:47;1.98;;;1.80;;
67751;SDS011;54551;51.068;5.826;2022-07-29T12:28:13;2.33;;;1.92;;
67751;SDS011;54551;51.068;5.826;2022-07-29T12:30:47;2.80;;;2.40;;
67751;SDS011;54551;51.068;5.826;2022-07-29T12:33:24;2.42;;;2.08;;
67751;SDS011;54551;51.068;5.826;2022-07-29T12:36:02;2.80;;;2.45;;
67751;SDS011;54551;51.068;5.826;2022-07-29T12:38:28;2.58;;;1.90;;
67751;SDS011;54551;51.068;5.826;2022-07-29T12:40:54;3.95;;;1.63;;
67751;SDS011;54551;51.068;5.826;2022-07-29T12:43:21;1.92;;;1.50;;
67751;SDS011;54551;51.068;5.826;2022-07-29T12:45:49;4.55;;;2.35;;
67751;SDS011;54551;51.068;5.826;2022-07-29T12:48:17;3.30;;;2.20;;
67751;SDS011;54551;51.068;5.826;2022-07-29T12:50:59;2.33;;;1.95;;
67751;SDS011;54551;51.068;5.826;2022-07-29T12:53:26;3.55;;;2.08;;
67751;SDS011;54551;51.068;5.826;2022-07-29T12:55:54;2.53;;;1.98;;
67751;SDS011;54551;51.068;5.826;2022-07-29T12:58:28;3.75;;;2.00;;
67751;SDS011;54551;51.068;5.826;2022-07-29T13:09:08;2.78;;;1.92;;
67751;SDS011;54551;51.068;5.826;2022-07-29T13:11:37;1.95;;;1.80;;
67751;SDS011;54551;51.068;5.826;2022-07-29T13:14:08;3.15;;;2.50;;
67751;SDS011;54551;51.068;5.826;2022-07-29T13:16:36;3.72;;;2.35;;
67751;SDS011;54551;51.068;5.826;2022-07-29T13:19:31;3.40;;;2.20;;
67751;SDS011;54551;51.068;5.826;2022-07-29T13:22:01;4.40;;;1.80;;
67751;SDS011;54551;51.068;5.826;2022-07-29T13:24:28;3.35;;;2.28;;
67751;SDS011;54551;51.068;5.826;2022-07-29T13:26:54;3.28;;;2.42;;
67751;SDS011;54551;51.068;5.826;2022-07-29T13:29:20;2.63;;;2.13;;
67751;SDS011;54551;51.068;5.826;2022-07-29T13:31:46;3.55;;;2.53;;
67751;SDS011;54551;51.068;5.826;2022-07-29T13:34:11;4.40;;;2.78;;
67751;SDS011;54551;51.068;5.826;2022-07-29T13:36:37;4.05;;;2.72;;
67751;SDS011;54551;51.068;5.826;2022-07-29T13:39:03;2.53;;;2.28;;
67751;SDS011;54551;51.068;5.826;2022-07-29T13:41:29;4.38;;;2.78;;
67751;SDS011;54551;51.068;5.826;2022-07-29T13:43:55;2.40;;;2.20;;
67751;SDS011;54551;51.068;5.826;2022-07-29T13:46:21;2.55;;;2.00;;
67751;SDS011;54551;51.068;5.826;2022-07-29T13:48:47;5.05;;;2.00;;
67751;SDS011;54551;51.068;5.826;2022-07-29T13:51:13;2.78;;;2.13;;
67751;SDS011;54551;51.068;5.826;2022-07-29T13:53:39;3.20;;;2.83;;
67751;SDS011;54551;51.068;5.826;2022-07-29T13:56:05;3.10;;;2.65;;
67751;SDS011;54551;51.068;5.826;2022-07-29T13:58:31;2.10;;;1.90;;
67751;SDS011;54551;51.068;5.826;2022-07-29T14:00:58;2.30;;;2.10;;
67751;SDS011;54551;51.068;5.826;2022-07-29T14:03:24;4.38;;;2.60;;
67751;SDS011;54551;51.068;5.826;2022-07-29T14:05:50;3.83;;;3.53;;
67751;SDS011;54551;51.068;5.826;2022-07-29T14:08:16;3.63;;;3.22;;
67751;SDS011;54551;51.068;5.826;2022-07-29T14:10:43;3.42;;;3.13;;
67751;SDS011;54551;51.068;5.826;2022-07-29T14:13:09;3.38;;;2.92;;
67751;SDS011;54551;51.068;5.826;2022-07-29T14:15:35;3.25;;;2.60;;
67751;SDS011;54551;51.068;5.826;2022-07-29T14:18:01;3.50;;;3.20;;
67751;SDS011;54551;51.068;5.826;2022-07-29T14:20:27;3.50;;;2.97;;
67751;SDS011;54551;51.068;5.826;2022-07-29T14:22:55;4.25;;;3.25;;
67751;SDS011;54551;51.068;5.826;2022-07-29T14:25:21;3.05;;;2.83;;
67751;SDS011;54551;51.068;5.826;2022-07-29T14:27:48;4.03;;;3.53;;
67751;SDS011;54551;51.068;5.826;2022-07-29T14:30:14;3.45;;;2.97;;
67751;SDS011;54551;51.068;5.826;2022-07-29T14:32:40;3.20;;;2.90;;
67751;SDS011;54551;51.068;5.826;2022-07-29T14:35:09;6.65;;;3.70;;
67751;SDS011;54551;51.068;5.826;2022-07-29T14:37:35;4.30;;;3.03;;
67751;SDS011;54551;51.068;5.826;2022-07-29T14:40:01;3.40;;;2.80;;
67751;SDS011;54551;51.068;5.826;2022-07-29T14:42:28;5.80;;;2.70;;
67751;SDS011;54551;51.068;5.826;2022-07-29T14:44:56;3.80;;;2.60;;
67751;SDS011;54551;51.068;5.826;2022-07-29T14:47:23;3.25;;;2.95;;
67751;SDS011;54551;51.068;5.826;2022-07-29T14:49:49;4.82;;;2.92;;
67751;SDS011;54551;51.068;5.826;2022-07-29T14:52:15;4.63;;;3.15;;
67751;SDS011;54551;51.068;5.826;2022-07-29T14:54:40;3.67;;;2.75;;
67751;SDS011;54551;51.068;5.826;2022-07-29T14:57:06;4.38;;;2.80;;
67751;SDS011;54551;51.068;5.826;2022-07-29T14:59:32;7.57;;;3.03;;
67751;SDS011;54551;51.068;5.826;2022-07-29T15:01:58;3.22;;;2.50;;
67751;SDS011;54551;51.068;5.826;2022-07-29T15:04:24;3.95;;;2.40;;
67751;SDS011;54551;51.068;5.826;2022-07-29T15:06:50;3.45;;;1.98;;
67751;SDS011;54551;51.068;5.826;2022-07-29T15:09:17;3.85;;;2.15;;
67751;SDS011;54551;51.068;5.826;2022-07-29T15:11:43;2.85;;;2.20;;
67751;SDS011;54551;51.068;5.826;2022-07-29T15:14:09;3.15;;;2.05;;
67751;SDS011;54551;51.068;5.826;2022-07-29T15:16:36;2.50;;;2.20;;
67751;SDS011;54551;51.068;5.826;2022-07-29T15:19:02;4.18;;;2.70;;
67751;SDS011;54551;51.068;5.826;2022-07-29T15:21:29;5.55;;;2.90;;
67751;SDS011;54551;51.068;5.826;2022-07-29T15:23:55;4.97;;;2.80;;
67751;SDS011;54551;51.068;5.826;2022-07-29T15:26:21;2.95;;;2.53;;
67751;SDS011;54551;51.068;5.826;2022-07-29T15:28:47;4.32;;;2.65;;
67751;SDS011;54551;51.068;5.826;2022-07-29T15:31:12;3.05;;;2.60;;
67751;SDS011;54551;51.068;5.826;2022-07-29T15:33:38;2.30;;;2.10;;
67751;SDS011;54551;51.068;5.826;2022-07-29T15:36:05;3.88;;;2.85;;
67751;SDS011;54551;51.068;5.826;2022-07-29T15:38:31;2.92;;;2.40;;
67751;SDS011;54551;51.068;5.826;2022-07-29T15:40:57;5.47;;;2.13;;
67751;SDS011;54551;51.068;5.826;2022-07-29T15:43:23;3.85;;;2.50;;
67751;SDS011;54551;51.068;5.826;2022-07-29T15:45:49;3.92;;;2.22;;
67751;SDS011;54551;51.068;5.826;2022-07-29T15:48:37;3.63;;;2.58;;
67751;SDS011;54551;51.068;5.826;2022-07-29T15:51:03;4.15;;;2.17;;
67751;SDS011;54551;51.068;5.826;2022-07-29T15:53:29;2.65;;;2.08;;
67751;SDS011;54551;51.068;5.826;2022-07-29T15:55:55;5.00;;;2.45;;
67751;SDS011;54551;51.068;5.826;2022-07-29T15:58:21;3.33;;;2.08;;
67751;SDS011;54551;51.068;5.826;2022-07-29T16:00:48;5.07;;;2.03;;
67751;SDS011;54551;51.068;5.826;2022-07-29T16:03:14;3.30;;;1.85;;
67751;SDS011;54551;51.068;5.826;2022-07-29T16:05:40;2.72;;;1.70;;
67751;SDS011;54551;51.068;5.826;2022-07-29T16:08:06;3.15;;;1.65;;
67751;SDS011;54551;51.068;5.826;2022-07-29T16:10:32;3.20;;;1.92;;
67751;SDS011;54551;51.068;5.826;2022-07-29T16:12:58;3.90;;;1.90;;